createdAt,value
2017-08-16T00:04:45.724Z,100748
2017-08-16T00:09:48.961Z,100755
2017-08-16T00:14:52.123Z,100754
2017-08-16T00:19:55.320Z,100753
2017-08-16T00:24:59.273Z,100741
2017-08-16T00:30:02.481Z,100726
2017-08-16T00:35:05.678Z,100753
2017-08-16T00:40:08.869Z,100767
2017-08-16T00:45:12.823Z,100768
2017-08-16T00:50:16.102Z,100782
2017-08-16T00:55:19.289Z,100774
2017-08-16T01:00:23.245Z,100771
2017-08-16T01:05:26.438Z,100785
2017-08-16T01:10:30.385Z,100791
2017-08-16T01:15:33.566Z,100787
2017-08-16T01:20:37.525Z,100781
2017-08-16T01:25:40.732Z,100777
2017-08-16T01:30:43.901Z,100782
2017-08-16T01:35:47.911Z,100774
2017-08-16T01:40:51.878Z,100767
2017-08-16T01:45:55.081Z,100776
2017-08-16T01:50:58.297Z,100771
2017-08-16T01:56:01.485Z,100768
2017-08-16T02:01:04.674Z,100776
2017-08-16T02:06:08.618Z,100777
2017-08-16T02:11:11.810Z,100784
2017-08-16T02:16:15.766Z,100777
2017-08-16T02:21:18.950Z,100788
2017-08-16T02:26:22.118Z,100801
2017-08-16T02:31:25.300Z,100805
2017-08-16T02:36:28.470Z,100802
2017-08-16T02:41:31.657Z,100813
2017-08-16T02:46:35.610Z,100814
2017-08-16T02:51:38.839Z,100809
2017-08-16T02:56:42.001Z,100825
2017-08-16T03:01:45.953Z,100830
2017-08-16T03:06:49.108Z,100837
2017-08-16T03:11:52.265Z,100819
2017-08-16T03:16:55.440Z,100815
2017-08-16T03:21:58.610Z,100821
2017-08-16T03:27:01.835Z,100834
2017-08-16T03:32:05.021Z,100839
2017-08-16T03:37:08.182Z,100844
2017-08-16T03:42:12.140Z,100843
2017-08-16T03:47:15.295Z,100854
2017-08-16T03:52:18.454Z,100851
2017-08-16T03:57:21.638Z,100861
2017-08-16T04:02:24.807Z,100857
2017-08-16T04:07:28.049Z,100863
2017-08-16T04:12:31.969Z,100875
2017-08-16T04:17:35.133Z,100881
2017-08-16T04:22:38.301Z,100886
2017-08-16T04:27:41.478Z,100893
2017-08-16T04:32:45.417Z,100897
2017-08-16T04:37:48.630Z,100902
2017-08-16T04:42:51.834Z,100902
2017-08-16T04:47:55.010Z,100892
2017-08-16T04:52:59.059Z,100903
2017-08-16T04:58:02.237Z,100902
2017-08-16T05:03:05.410Z,100909
2017-08-16T05:08:08.585Z,100907
2017-08-16T05:13:11.724Z,100913
2017-08-16T05:18:14.897Z,100915
2017-08-16T05:23:18.057Z,100922
2017-08-16T05:28:21.239Z,100928
2017-08-16T05:33:24.402Z,100920
2017-08-16T05:38:28.343Z,100922
2017-08-16T05:43:31.539Z,100912
2017-08-16T05:48:35.475Z,100923
2017-08-16T05:53:38.655Z,100930
2017-08-16T05:58:42.749Z,100934
2017-08-16T06:03:45.938Z,100916
2017-08-16T06:08:49.121Z,100930
2017-08-16T06:13:52.293Z,100942
2017-08-16T06:18:55.478Z,100924
2017-08-16T06:23:58.649Z,100942
2017-08-16T06:29:01.822Z,100943
2017-08-16T06:34:05.001Z,100937
2017-08-16T06:39:08.167Z,100934
2017-08-16T06:44:11.358Z,100939
2017-08-16T06:49:14.533Z,100942
2017-08-16T06:54:17.722Z,100944
2017-08-16T06:59:20.980Z,100961
2017-08-16T07:04:24.905Z,100965
2017-08-16T07:09:28.079Z,100963
2017-08-16T07:14:31.261Z,100963
2017-08-16T07:19:34.450Z,100968
2017-08-16T07:24:37.656Z,100970
2017-08-16T07:29:40.864Z,100980
2017-08-16T07:34:44.037Z,100978
2017-08-16T07:39:48.010Z,100979
2017-08-16T07:44:51.217Z,100976
2017-08-16T07:49:54.397Z,100984
2017-08-16T07:54:57.581Z,100985
2017-08-16T08:00:01.574Z,100995
2017-08-16T08:05:04.824Z,101001
2017-08-16T08:10:08.770Z,100995
2017-08-16T08:15:11.970Z,101003
2017-08-16T08:20:15.147Z,101004
2017-08-16T08:25:19.098Z,101008
2017-08-16T08:30:22.268Z,101009
2017-08-16T08:35:26.213Z,101010
2017-08-16T08:40:29.391Z,101007
2017-08-16T08:45:32.608Z,101008
2017-08-16T08:50:35.825Z,101002
2017-08-16T08:55:39.789Z,101006
2017-08-16T09:00:42.969Z,101010
2017-08-16T09:05:46.163Z,101006
2017-08-16T09:10:50.106Z,101011
2017-08-16T09:15:53.300Z,101008
2017-08-16T09:20:57.604Z,101012
2017-08-16T09:26:00.804Z,101010
2017-08-16T09:31:03.985Z,101009
2017-08-16T09:36:07.236Z,101005
2017-08-16T09:41:10.425Z,101014
2017-08-16T09:46:13.645Z,101009
2017-08-16T09:51:16.831Z,101009
2017-08-16T09:56:20.292Z,101013
2017-08-16T10:01:24.275Z,101009
2017-08-16T10:06:27.457Z,101001
2017-08-16T10:11:30.690Z,100989
2017-08-16T10:16:33.908Z,100992
2017-08-16T10:21:37.210Z,100985
2017-08-16T10:26:40.386Z,100986
2017-08-16T10:31:43.596Z,100984
2017-08-16T10:36:46.807Z,100987
2017-08-16T10:41:50.031Z,100977
2017-08-16T10:46:53.248Z,100981
2017-08-16T10:51:56.459Z,100977
2017-08-16T10:56:59.632Z,100972
2017-08-16T11:02:02.834Z,100968
2017-08-16T11:07:06.049Z,100966
2017-08-16T11:12:09.248Z,100964
2017-08-16T11:17:12.498Z,100960
2017-08-16T11:22:16.486Z,100961
2017-08-16T11:27:19.698Z,100943
2017-08-16T11:32:22.902Z,100937
2017-08-16T11:37:26.130Z,100942
2017-08-16T11:42:29.318Z,100936
2017-08-16T11:47:32.502Z,100932
2017-08-16T11:52:35.694Z,100938
2017-08-16T11:57:38.930Z,100941
2017-08-16T12:02:42.111Z,100929
2017-08-16T12:07:45.322Z,100931
2017-08-16T12:12:48.511Z,100929
2017-08-16T12:17:51.708Z,100927
2017-08-16T12:22:55.658Z,100917
2017-08-16T12:27:58.845Z,100912
2017-08-16T12:33:02.056Z,100903
2017-08-16T12:38:05.992Z,100905
2017-08-16T12:43:09.562Z,100912
2017-08-16T12:48:12.733Z,100913
2017-08-16T12:53:15.923Z,100919
2017-08-16T12:58:23.167Z,100922
2017-08-16T13:03:26.376Z,100910
2017-08-16T13:08:29.561Z,100908
2017-08-16T13:13:32.786Z,100906
2017-08-16T13:18:35.977Z,100904
2017-08-16T13:23:39.294Z,100903
2017-08-16T13:28:42.506Z,100899
2017-08-16T13:33:45.789Z,100898
2017-08-16T13:38:48.981Z,100897
2017-08-16T13:43:52.159Z,100897
2017-08-16T13:48:56.254Z,100887
2017-08-16T13:53:59.474Z,100882
2017-08-16T13:59:02.659Z,100887
2017-08-16T14:04:05.862Z,100874
2017-08-16T14:09:09.052Z,100874
2017-08-16T14:14:12.262Z,100871
2017-08-16T14:19:15.446Z,100869
2017-08-16T14:24:18.633Z,100868
2017-08-16T14:29:22.681Z,100869
2017-08-16T14:34:26.628Z,100864
2017-08-16T14:39:29.821Z,100860
2017-08-16T14:44:33.922Z,100854
2017-08-16T14:49:37.845Z,100850
2017-08-16T14:54:41.778Z,100853
2017-08-16T14:59:44.976Z,100849
2017-08-16T15:04:48.934Z,100846
2017-08-16T15:09:52.143Z,100849
2017-08-16T15:14:55.413Z,100853
2017-08-16T15:19:59.342Z,100851
2017-08-16T15:25:03.327Z,100844
2017-08-16T15:30:06.538Z,100850
2017-08-16T15:35:09.769Z,100839
2017-08-16T15:40:14.061Z,100839
2017-08-16T15:45:17.305Z,100833
2017-08-16T15:50:21.271Z,100839
2017-08-16T15:55:24.756Z,100845
2017-08-16T16:00:28.859Z,100844
2017-08-16T16:05:33.011Z,100838
2017-08-16T16:10:36.974Z,100833
2017-08-16T16:15:40.196Z,100831
2017-08-16T16:20:43.403Z,100824
2017-08-16T16:25:46.621Z,100815
2017-08-16T16:30:49.811Z,100806
2017-08-16T16:35:53.037Z,100801
2017-08-16T16:40:56.233Z,100808
2017-08-16T16:45:59.417Z,100815
2017-08-16T16:51:02.613Z,100818
2017-08-16T16:56:05.822Z,100806
2017-08-16T17:01:09.006Z,100805
2017-08-16T17:06:12.949Z,100799
2017-08-16T17:11:16.124Z,100804
2017-08-16T17:16:19.334Z,100809
2017-08-16T17:21:23.278Z,100809
2017-08-16T17:26:26.605Z,100820
2017-08-16T17:31:29.827Z,100808
2017-08-16T17:36:33.057Z,100815
2017-08-16T17:41:36.256Z,100809
2017-08-16T17:46:41.106Z,100806
2017-08-16T17:51:44.352Z,100823
2017-08-16T17:56:48.396Z,100821
2017-08-16T18:01:51.628Z,100819
2017-08-16T18:06:54.859Z,100818
2017-08-16T18:11:58.033Z,100822
2017-08-16T18:17:01.246Z,100823
2017-08-16T18:22:04.465Z,100821
2017-08-16T18:27:07.665Z,100824
2017-08-16T18:32:10.881Z,100818
2017-08-16T18:37:14.096Z,100822
2017-08-16T18:42:17.300Z,100823
2017-08-16T18:47:20.530Z,100827
2017-08-16T18:52:23.719Z,100833
2017-08-16T18:57:26.926Z,100844
2017-08-16T19:02:30.141Z,100844
2017-08-16T19:07:33.382Z,100830
2017-08-16T19:12:37.362Z,100834
2017-08-16T19:17:40.553Z,100829
2017-08-16T19:22:43.758Z,100833
2017-08-16T19:27:46.977Z,100831
2017-08-16T19:32:50.184Z,100838
2017-08-16T19:37:53.377Z,100835
2017-08-16T19:42:56.573Z,100833
2017-08-16T19:47:59.730Z,100836
2017-08-16T19:53:03.712Z,100837
2017-08-16T19:58:06.936Z,100835
2017-08-16T20:03:10.122Z,100838
2017-08-16T20:08:13.325Z,100830
2017-08-16T20:13:16.546Z,100833
2017-08-16T20:18:19.827Z,100829
2017-08-16T20:23:23.052Z,100830
2017-08-16T20:28:26.267Z,100827
2017-08-16T20:33:29.459Z,100817
2017-08-16T20:38:32.669Z,100825
2017-08-16T20:43:36.059Z,100823
2017-08-16T20:48:39.989Z,100822
2017-08-16T20:53:43.207Z,100819
2017-08-16T20:58:46.413Z,100821
2017-08-16T21:03:49.643Z,100817
2017-08-16T21:08:52.879Z,100821
2017-08-16T21:13:56.094Z,100815
2017-08-16T21:18:59.272Z,100807
2017-08-16T21:24:02.488Z,100799
2017-08-16T21:29:05.656Z,100791
2017-08-16T21:34:08.840Z,100796
2017-08-16T21:39:12.049Z,100789
2017-08-16T21:44:15.248Z,100799
2017-08-16T21:49:19.275Z,100784
2017-08-16T21:54:22.455Z,100779
2017-08-16T21:59:25.634Z,100773
2017-08-16T22:04:28.848Z,100763
2017-08-16T22:09:32.081Z,100759
2017-08-16T22:14:35.279Z,100753
2017-08-16T22:19:38.480Z,100746
2017-08-16T22:24:41.669Z,100739
2017-08-16T22:29:44.881Z,100740
2017-08-16T22:34:48.088Z,100742
2017-08-16T22:39:51.285Z,100740
2017-08-16T22:44:54.481Z,100741
2017-08-16T22:49:57.671Z,100731
2017-08-16T22:55:00.860Z,100724
2017-08-16T23:00:04.796Z,100724
2017-08-16T23:05:08.014Z,100719
2017-08-16T23:10:11.198Z,100714
2017-08-16T23:15:14.351Z,100711
2017-08-16T23:20:17.807Z,100701
2017-08-16T23:25:21.819Z,100690
2017-08-16T23:30:24.993Z,100693
2017-08-16T23:35:28.201Z,100699
2017-08-16T23:40:31.471Z,100709
2017-08-16T23:45:35.447Z,100706
2017-08-16T23:50:38.652Z,100706
2017-08-16T23:55:41.842Z,100689
